createdAt,value
2023-05-19T00:01:59.913Z,101886.16
2023-05-19T00:04:38.302Z,101883.32
2023-05-19T00:07:13.563Z,101884.39
2023-05-19T00:09:46.765Z,101885.54
2023-05-19T00:12:20.025Z,101884.86
2023-05-19T00:14:52.688Z,101883.78
2023-05-19T00:17:24.275Z,101886.23
2023-05-19T00:19:55.576Z,101884.45
2023-05-19T00:22:26.284Z,101884.89
2023-05-19T00:24:56.984Z,101884.08
2023-05-19T00:27:27.640Z,101887.02
2023-05-19T00:29:58.469Z,101882.36
2023-05-19T00:32:29.159Z,101888.05
2023-05-19T00:34:59.942Z,101888.29
2023-05-19T00:37:30.664Z,101884.27
2023-05-19T00:40:01.351Z,101885.83
2023-05-19T00:42:32.077Z,101883.97
2023-05-19T00:45:02.781Z,101881.45
2023-05-19T00:47:34.242Z,101880.58
2023-05-19T00:50:03.440Z,101879.77
2023-05-19T00:52:34.144Z,101879.38
2023-05-19T00:55:05.555Z,101881.08
2023-05-19T00:57:36.554Z,101879.58
2023-05-19T01:00:09.785Z,101873.77
2023-05-19T01:02:40.864Z,101877.83
2023-05-19T01:05:12.700Z,101877.14
2023-05-19T01:07:43.966Z,101876.70
2023-05-19T01:10:14.747Z,101881.20
2023-05-19T01:12:45.598Z,101883.55
2023-05-19T01:15:16.583Z,101882.42
2023-05-19T01:17:48.913Z,101881.84
2023-05-19T01:20:24.273Z,101882.44
2023-05-19T01:23:18.155Z,101885.77
2023-05-19T01:26:15.960Z,101883.56
2023-05-19T01:29:08.146Z,101886.21
2023-05-19T01:32:09.446Z,101890.77
2023-05-19T01:34:34.004Z,101889.66
2023-05-19T01:37:05.568Z,101892.34
2023-05-19T01:39:37.377Z,101891.23
2023-05-19T01:42:11.002Z,101891.23
2023-05-19T01:44:42.352Z,101898.41
2023-05-19T01:47:13.700Z,101900.52
2023-05-19T01:49:44.379Z,101901.33
2023-05-19T01:52:15.038Z,101902.70
2023-05-19T01:54:45.679Z,101903.20
2023-05-19T01:57:24.627Z,101904.77
2023-05-19T02:00:05.210Z,101904.48
2023-05-19T02:02:44.211Z,101903.98
2023-05-19T02:05:23.275Z,101907.19
2023-05-19T02:07:59.767Z,101905.48
2023-05-19T02:10:33.565Z,101905.13
2023-05-19T02:13:07.125Z,101902.17
2023-05-19T02:15:41.295Z,101898.69
2023-05-19T02:18:14.230Z,101902.29
2023-05-19T02:20:45.244Z,101901.08
2023-05-19T02:23:14.336Z,101904.52
2023-05-19T02:25:45.007Z,101903.01
2023-05-19T02:28:15.743Z,101898.45
2023-05-19T02:30:46.750Z,101901.98
2023-05-19T02:33:15.939Z,101899.59
2023-05-19T02:35:46.715Z,101894.64
2023-05-19T02:38:17.461Z,101893.77
2023-05-19T02:40:48.160Z,101892.23
2023-05-19T02:43:18.920Z,101894.86
2023-05-19T02:45:49.597Z,101892.04
2023-05-19T02:48:20.260Z,101888.51
2023-05-19T02:50:50.968Z,101888.40
2023-05-19T02:53:21.729Z,101882.33
2023-05-19T02:55:52.451Z,101884.69
2023-05-19T02:58:23.190Z,101883.66
2023-05-19T03:00:53.890Z,101886.99
2023-05-19T03:03:24.695Z,101888.60
2023-05-19T03:05:55.477Z,101890.11
2023-05-19T03:08:26.192Z,101885.81
2023-05-19T03:10:56.860Z,101884.02
2023-05-19T03:13:27.797Z,101882.63
2023-05-19T03:15:56.895Z,101884.34
2023-05-19T03:18:27.842Z,101884.58
2023-05-19T03:20:58.812Z,101883.48
2023-05-19T03:23:27.960Z,101887.39
2023-05-19T03:25:58.664Z,101890.56
2023-05-19T03:28:29.348Z,101886.22
2023-05-19T03:31:00.169Z,101894.90
2023-05-19T03:33:31.103Z,101898.13
2023-05-19T03:36:01.760Z,101899.06
2023-05-19T03:38:32.502Z,101896.61
2023-05-19T03:41:03.413Z,101896.39
2023-05-19T03:43:34.266Z,101898.09
2023-05-19T03:46:05.070Z,101896.27
2023-05-19T03:48:36.378Z,101895.73
2023-05-19T03:51:07.319Z,101897.02
2023-05-19T03:53:37.984Z,101899.22
2023-05-19T03:56:11.309Z,101905.30
2023-05-19T03:58:42.128Z,101906.67
2023-05-19T04:01:13.130Z,101907.77
2023-05-19T04:03:42.261Z,101911.45
2023-05-19T04:06:13.087Z,101906.81
2023-05-19T04:08:43.812Z,101908.02
2023-05-19T04:11:17.388Z,101909.33
2023-05-19T04:13:48.151Z,101910.25
2023-05-19T04:16:18.838Z,101915.17
2023-05-19T04:18:49.669Z,101915.63
2023-05-19T04:21:20.618Z,101914.61
2023-05-19T04:23:49.755Z,101916.58
2023-05-19T04:26:20.666Z,101915.61
2023-05-19T04:28:51.315Z,101914.75
2023-05-19T04:31:22.153Z,101915.02
2023-05-19T04:33:52.869Z,101917.92
2023-05-19T04:36:23.612Z,101911.18
2023-05-19T04:38:54.714Z,101902.60
2023-05-19T04:41:25.392Z,101909.29
2023-05-19T04:43:56.074Z,101906.50
2023-05-19T04:46:27.641Z,101898.83
2023-05-19T04:48:58.306Z,101898.63
2023-05-19T04:51:30.604Z,101899.36
2023-05-19T04:54:01.464Z,101899.08
2023-05-19T04:56:32.168Z,101899.96
2023-05-19T04:59:02.891Z,101900.05
2023-05-19T05:01:34.026Z,101899.30
2023-05-19T05:04:05.007Z,101898.82
2023-05-19T05:06:35.772Z,101896.92
2023-05-19T05:09:06.560Z,101893.62
2023-05-19T05:11:36.588Z,101892.41
2023-05-19T05:14:09.984Z,101891.52
2023-05-19T05:16:44.497Z,101890.83
2023-05-19T05:19:17.916Z,101888.05
2023-05-19T05:21:52.798Z,101894.80
2023-05-19T05:24:27.668Z,101896.05
2023-05-19T05:26:58.406Z,101895.67
2023-05-19T05:29:29.757Z,101896.36
2023-05-19T05:32:00.758Z,101899.20
2023-05-19T05:34:31.577Z,101899.27
2023-05-19T05:37:02.286Z,101895.20
2023-05-19T05:39:32.976Z,101901.48
2023-05-19T05:42:03.717Z,101898.95
2023-05-19T05:44:32.927Z,101901.74
2023-05-19T05:47:08.448Z,101908.13
2023-05-19T05:49:40.467Z,101904.63
2023-05-19T05:52:12.670Z,101902.09
2023-05-19T05:54:46.264Z,101904.12
2023-05-19T05:57:19.263Z,101909.00
2023-05-19T05:59:50.027Z,101912.98
2023-05-19T06:02:20.865Z,101911.46
2023-05-19T06:04:50.038Z,101914.68
2023-05-19T06:07:21.082Z,101915.38
2023-05-19T06:09:51.787Z,101914.99
2023-05-19T06:12:23.194Z,101917.63
2023-05-19T06:14:53.997Z,101915.88
2023-05-19T06:17:24.934Z,101915.41
2023-05-19T06:19:55.845Z,101916.82
2023-05-19T06:22:25.014Z,101919.80
2023-05-19T06:24:58.404Z,101923.60
2023-05-19T06:27:27.481Z,101924.05
2023-05-19T06:29:58.350Z,101926.05
2023-05-19T06:32:27.517Z,101927.32
2023-05-19T06:35:00.807Z,101924.02
2023-05-19T06:37:31.523Z,101923.26
2023-05-19T06:40:02.272Z,101925.08
2023-05-19T06:42:33.150Z,101923.86
2023-05-19T06:45:04.094Z,101927.42
2023-05-19T06:47:34.821Z,101924.66
2023-05-19T06:50:07.844Z,101926.06
2023-05-19T06:52:39.050Z,101921.64
2023-05-19T06:55:16.865Z,101924.32
2023-05-19T06:57:47.773Z,101925.61
2023-05-19T07:00:18.848Z,101924.93
2023-05-19T07:02:51.423Z,101920.75
2023-05-19T07:05:20.696Z,101919.08
2023-05-19T07:07:51.460Z,101920.40
2023-05-19T07:10:22.295Z,101922.71
2023-05-19T07:12:53.113Z,101924.40
2023-05-19T07:15:22.255Z,101924.38
2023-05-19T07:17:53.108Z,101923.08
2023-05-19T07:20:22.193Z,101921.76
2023-05-19T07:22:52.878Z,101925.18
2023-05-19T07:25:23.586Z,101920.90
2023-05-19T07:27:54.418Z,101920.07
2023-05-19T07:30:23.834Z,101918.42
2023-05-19T07:32:54.717Z,101916.72
2023-05-19T07:35:27.309Z,101914.95
2023-05-19T07:37:57.981Z,101917.79
2023-05-19T07:40:28.787Z,101918.77
2023-05-19T07:42:57.976Z,101917.79
2023-05-19T07:45:28.745Z,101916.55
2023-05-19T07:47:59.614Z,101918.01
2023-05-19T07:50:30.532Z,101914.91
2023-05-19T07:53:01.412Z,101915.24
2023-05-19T07:55:30.523Z,101920.69
2023-05-19T07:58:01.190Z,101920.39
2023-05-19T08:00:32.199Z,101921.09
2023-05-19T08:03:03.172Z,101920.91
2023-05-19T08:05:32.368Z,101918.30
2023-05-19T08:08:03.094Z,101915.05
2023-05-19T08:10:33.969Z,101913.54
2023-05-19T08:13:04.991Z,101914.02
2023-05-19T08:15:34.849Z,101910.77
2023-05-19T08:18:05.868Z,101907.80
2023-05-19T08:20:36.605Z,101908.67
2023-05-19T08:23:05.734Z,101906.89
2023-05-19T08:25:36.494Z,101902.08
2023-05-19T08:28:07.508Z,101905.19
2023-05-19T08:30:38.249Z,101903.17
2023-05-19T08:33:07.794Z,101901.21
2023-05-19T08:35:38.598Z,101901.23
2023-05-19T08:38:07.810Z,101903.20
2023-05-19T08:40:41.480Z,101903.98
2023-05-19T08:43:12.261Z,101903.92
2023-05-19T08:45:43.083Z,101907.02
2023-05-19T08:48:13.105Z,101908.48
2023-05-19T08:50:52.127Z,101905.96
2023-05-19T08:53:33.772Z,101906.34
2023-05-19T08:56:10.730Z,101901.84
2023-05-19T08:58:42.878Z,101898.73
2023-05-19T09:01:15.172Z,101897.19
2023-05-19T09:03:46.667Z,101897.05
2023-05-19T09:06:17.522Z,101891.98
2023-05-19T09:08:46.665Z,101889.90
2023-05-19T09:11:17.670Z,101887.73
2023-05-19T09:13:48.521Z,101886.46
2023-05-19T09:16:17.860Z,101883.29
2023-05-19T09:18:57.350Z,101885.29
2023-05-19T09:21:32.563Z,101881.77
2023-05-19T09:24:09.803Z,101879.91
2023-05-19T09:26:42.123Z,101880.34
2023-05-19T09:29:17.435Z,101877.60
2023-05-19T09:31:51.812Z,101877.33
2023-05-19T09:34:23.752Z,101874.13
2023-05-19T09:36:54.875Z,101877.65
2023-05-19T09:39:25.816Z,101873.60
2023-05-19T09:41:57.833Z,101876.86
2023-05-19T09:44:28.938Z,101880.86
2023-05-19T09:47:00.256Z,101879.30
2023-05-19T09:49:31.670Z,101877.35
2023-05-19T09:52:04.353Z,101880.88
2023-05-19T09:54:35.656Z,101880.36
2023-05-19T09:57:08.413Z,101880.09
2023-05-19T09:59:40.879Z,101877.06
2023-05-19T10:02:16.712Z,101870.45
2023-05-19T10:04:48.911Z,101868.05
2023-05-19T10:07:23.246Z,101866.70
2023-05-19T10:09:56.692Z,101863.58
2023-05-19T10:12:30.469Z,101868.29
2023-05-19T10:15:01.874Z,101870.57
2023-05-19T10:17:34.412Z,101867.86
2023-05-19T10:20:06.962Z,101865.45
2023-05-19T10:22:38.138Z,101865.56
2023-05-19T10:25:11.026Z,101867.52
2023-05-19T10:27:44.956Z,101870.68
2023-05-19T10:30:18.802Z,101864.54
2023-05-19T10:32:50.012Z,101860.84
2023-05-19T10:35:43.136Z,101863.96
2023-05-19T10:38:21.706Z,101866.89
2023-05-19T10:41:07.635Z,101863.46
2023-05-19T10:43:48.228Z,101864.12
2023-05-19T10:46:23.086Z,101861.16
2023-05-19T10:48:54.130Z,101856.70
2023-05-19T10:51:30.348Z,101856.70
2023-05-19T10:54:03.270Z,101856.52
2023-05-19T10:56:39.248Z,101861.55
2023-05-19T10:59:29.885Z,101857.90
2023-05-19T11:02:05.408Z,101858.74
2023-05-19T11:04:51.324Z,101855.42
2023-05-19T11:07:23.521Z,101855.91
2023-05-19T11:09:54.449Z,101857.30
2023-05-19T11:12:25.640Z,101857.81
2023-05-19T11:14:58.020Z,101854.48
2023-05-19T11:17:28.941Z,101854.31
2023-05-19T11:19:59.851Z,101854.89
2023-05-19T11:22:28.995Z,101865.14
2023-05-19T11:24:59.865Z,101859.67
2023-05-19T11:27:29.623Z,101856.79
2023-05-19T11:30:01.744Z,101862.60
2023-05-19T11:32:34.120Z,101861.64
2023-05-19T11:35:05.691Z,101860.38
2023-05-19T11:37:36.719Z,101858.91
2023-05-19T11:40:08.040Z,101856.23
2023-05-19T11:42:38.823Z,101856.73
2023-05-19T11:45:09.498Z,101864.27
2023-05-19T11:47:57.262Z,101863.30
2023-05-19T11:50:32.519Z,101863.89
2023-05-19T11:53:12.970Z,101874.16
2023-05-19T11:55:48.769Z,101869.54
2023-05-19T11:58:24.891Z,101865.04
2023-05-19T12:00:55.864Z,101860.89
2023-05-19T12:03:25.164Z,101859.57
2023-05-19T12:05:56.162Z,101854.58
2023-05-19T12:08:25.486Z,101856.64
2023-05-19T12:10:56.582Z,101855.63
2023-05-19T12:13:27.420Z,101864.30
2023-05-19T12:15:59.183Z,101871.05
2023-05-19T12:18:31.302Z,101874.45
2023-05-19T12:21:02.139Z,101869.26
2023-05-19T12:23:31.782Z,101869.76
2023-05-19T12:26:03.562Z,101872.02
2023-05-19T12:28:34.329Z,101870.35
2023-05-19T12:31:03.636Z,101864.70
2023-05-19T12:33:35.938Z,101864.05
2023-05-19T12:36:07.924Z,101862.70
2023-05-19T12:38:38.872Z,101863.95
2023-05-19T12:41:10.799Z,101860.83
2023-05-19T12:43:42.100Z,101857.91
2023-05-19T12:46:13.652Z,101859.43
2023-05-19T12:48:44.990Z,101857.88
2023-05-19T12:51:19.033Z,101859.74
2023-05-19T12:53:51.647Z,101857.42
2023-05-19T12:56:25.421Z,101849.56
2023-05-19T12:58:56.595Z,101845.04
2023-05-19T13:01:29.392Z,101845.11
2023-05-19T13:04:00.506Z,101841.85
2023-05-19T13:06:31.726Z,101847.80
2023-05-19T13:09:00.888Z,101846.46
2023-05-19T13:11:31.985Z,101849.36
2023-05-19T13:14:02.669Z,101853.54
2023-05-19T13:16:33.429Z,101848.55
2023-05-19T13:19:06.257Z,101844.83
2023-05-19T13:21:37.248Z,101847.65
2023-05-19T13:24:09.911Z,101850.77
2023-05-19T13:26:41.658Z,101844.45
2023-05-19T13:29:12.848Z,101840.44
2023-05-19T13:31:44.031Z,101841.63
2023-05-19T13:34:14.774Z,101838.95
2023-05-19T13:36:45.524Z,101843.41
2023-05-19T13:39:16.493Z,101838.90
2023-05-19T13:41:45.624Z,101841.83
2023-05-19T13:44:16.362Z,101841.00
2023-05-19T13:46:47.424Z,101843.38
2023-05-19T13:49:19.254Z,101842.00
2023-05-19T13:51:48.437Z,101838.70
2023-05-19T13:54:19.237Z,101838.44
2023-05-19T13:56:48.502Z,101836.65
2023-05-19T13:59:19.223Z,101833.19
2023-05-19T14:01:50.060Z,101825.81
2023-05-19T14:04:20.900Z,101826.91
2023-05-19T14:06:52.049Z,101822.69
2023-05-19T14:09:22.956Z,101819.51
2023-05-19T14:11:53.708Z,101811.41
2023-05-19T14:14:22.896Z,101812.15
2023-05-19T14:16:53.652Z,101816.25
2023-05-19T14:19:22.846Z,101819.08
2023-05-19T14:21:53.936Z,101824.19
2023-05-19T14:24:23.211Z,101832.71
2023-05-19T14:26:53.908Z,101834.08
2023-05-19T14:29:23.180Z,101840.32
2023-05-19T14:31:53.964Z,101846.07
2023-05-19T14:34:24.872Z,101842.02
2023-05-19T14:36:55.726Z,101847.09
2023-05-19T14:39:26.451Z,101849.35
2023-05-19T14:41:55.643Z,101845.79
2023-05-19T14:44:29.608Z,101844.77
2023-05-19T14:47:00.687Z,101841.36
2023-05-19T14:49:31.459Z,101840.86
2023-05-19T14:52:02.192Z,101840.27
2023-05-19T14:54:33.165Z,101840.84
2023-05-19T14:57:04.081Z,101841.96
2023-05-19T14:59:36.569Z,101844.20
2023-05-19T15:02:07.527Z,101847.38
2023-05-19T15:04:38.275Z,101848.29
2023-05-19T15:07:10.639Z,101851.61
2023-05-19T15:09:41.895Z,101847.33
2023-05-19T15:12:11.089Z,101848.58
2023-05-19T15:14:41.841Z,101852.26
2023-05-19T15:17:12.662Z,101852.91
2023-05-19T15:19:41.938Z,101855.40
2023-05-19T15:22:12.717Z,101852.79
2023-05-19T15:24:43.399Z,101856.05
2023-05-19T15:27:14.454Z,101856.02
2023-05-19T15:29:43.636Z,101853.65
2023-05-19T15:32:14.475Z,101852.59
2023-05-19T15:34:43.569Z,101854.31
2023-05-19T15:37:14.285Z,101846.51
2023-05-19T15:39:45.062Z,101845.37
2023-05-19T15:42:15.767Z,101841.48
2023-05-19T15:44:46.436Z,101840.20
2023-05-19T15:47:17.298Z,101841.86
2023-05-19T15:49:46.440Z,101835.52
2023-05-19T15:52:17.492Z,101833.52
2023-05-19T15:54:48.440Z,101832.73
2023-05-19T15:57:19.195Z,101839.35
2023-05-19T15:59:49.911Z,101838.14
2023-05-19T16:02:21.288Z,101840.27
2023-05-19T16:04:53.026Z,101837.75
2023-05-19T16:07:23.767Z,101835.98
2023-05-19T16:09:54.546Z,101832.55
2023-05-19T16:12:25.292Z,101826.02
2023-05-19T16:14:56.026Z,101826.50
2023-05-19T16:17:26.738Z,101824.70
2023-05-19T16:19:57.491Z,101824.39
2023-05-19T16:22:28.272Z,101828.35
2023-05-19T16:24:59.035Z,101826.88
2023-05-19T16:27:29.795Z,101828.30
2023-05-19T16:30:00.497Z,101825.48
2023-05-19T16:32:31.277Z,101819.41
2023-05-19T16:35:00.587Z,101822.02
2023-05-19T16:37:31.373Z,101821.23
2023-05-19T16:40:00.632Z,101819.11
2023-05-19T16:42:31.530Z,101817.56
2023-05-19T16:45:00.652Z,101813.38
2023-05-19T16:47:31.835Z,101815.51
2023-05-19T16:50:02.604Z,101817.85
2023-05-19T16:52:33.959Z,101814.32
2023-05-19T16:55:05.029Z,101815.52
2023-05-19T16:57:35.789Z,101817.21
2023-05-19T17:00:11.190Z,101816.53
2023-05-19T17:02:41.946Z,101819.63
2023-05-19T17:05:12.865Z,101822.20
2023-05-19T17:07:43.653Z,101822.10
2023-05-19T17:10:14.459Z,101822.88
2023-05-19T17:12:43.655Z,101823.22
2023-05-19T17:15:14.591Z,101826.59
2023-05-19T17:17:55.312Z,101825.35
2023-05-19T17:20:25.901Z,101824.61
2023-05-19T17:22:56.782Z,101824.95
2023-05-19T17:25:25.992Z,101823.62
2023-05-19T17:27:56.651Z,101828.15
2023-05-19T17:30:27.408Z,101829.80
2023-05-19T17:32:58.430Z,101827.34
2023-05-19T17:35:29.168Z,101829.48
2023-05-19T17:37:59.908Z,101829.23
2023-05-19T17:40:30.735Z,101829.02
2023-05-19T17:43:01.452Z,101828.71
2023-05-19T17:45:32.497Z,101826.12
2023-05-19T17:48:03.245Z,101824.65
2023-05-19T17:50:34.235Z,101823.89
2023-05-19T17:53:06.259Z,101825.00
2023-05-19T17:55:38.259Z,101824.63
2023-05-19T17:58:11.140Z,101828.15
2023-05-19T18:00:42.544Z,101829.20
2023-05-19T18:03:14.595Z,101830.70
2023-05-19T18:05:46.781Z,101836.71
2023-05-19T18:08:20.052Z,101837.19
2023-05-19T18:10:52.754Z,101837.61
2023-05-19T18:13:23.524Z,101845.56
2023-05-19T18:15:54.467Z,101846.35
2023-05-19T18:18:45.766Z,101844.04
2023-05-19T18:21:16.522Z,101845.77
2023-05-19T18:23:47.510Z,101840.56
2023-05-19T18:26:16.742Z,101846.33
2023-05-19T18:28:47.480Z,101847.30
2023-05-19T18:31:18.240Z,101851.17
2023-05-19T18:33:49.260Z,101849.34
2023-05-19T18:36:19.954Z,101847.67
2023-05-19T18:38:52.824Z,101849.14
2023-05-19T18:41:23.493Z,101848.81
2023-05-19T18:43:54.445Z,101847.97
2023-05-19T18:46:23.659Z,101849.75
2023-05-19T18:48:54.499Z,101855.81
2023-05-19T18:51:25.455Z,101861.85
2023-05-19T18:53:56.177Z,101864.42
2023-05-19T18:56:27.921Z,101866.71
2023-05-19T18:59:01.148Z,101867.39
2023-05-19T19:01:31.910Z,101864.42
2023-05-19T19:04:03.089Z,101861.48
2023-05-19T19:06:33.852Z,101856.63
2023-05-19T19:09:05.000Z,101857.02
2023-05-19T19:11:35.998Z,101855.23
2023-05-19T19:14:05.185Z,101855.05
2023-05-19T19:16:36.865Z,101854.46
2023-05-19T19:19:07.669Z,101854.63
2023-05-19T19:21:38.697Z,101855.35
2023-05-19T19:24:09.675Z,101857.77
2023-05-19T19:26:40.439Z,101860.48
2023-05-19T19:29:11.192Z,101858.05
2023-05-19T19:31:42.441Z,101853.05
2023-05-19T19:34:13.218Z,101854.89
2023-05-19T19:36:43.911Z,101859.03
2023-05-19T19:39:14.834Z,101857.68
2023-05-19T19:41:44.561Z,101857.65
2023-05-19T19:44:15.393Z,101857.33
2023-05-19T19:46:46.375Z,101855.31
2023-05-19T19:49:15.665Z,101852.64
2023-05-19T19:51:46.528Z,101855.23
2023-05-19T19:54:17.940Z,101852.45
2023-05-19T19:56:49.203Z,101857.30
2023-05-19T19:59:18.637Z,101861.14
2023-05-19T20:01:49.385Z,101863.00
2023-05-19T20:04:28.201Z,101864.25
2023-05-19T20:06:59.205Z,101868.06
2023-05-19T20:09:30.029Z,101872.49
2023-05-19T20:12:00.863Z,101870.03
2023-05-19T20:14:30.193Z,101870.03
2023-05-19T20:17:00.981Z,101871.52
2023-05-19T20:19:31.805Z,101871.58
2023-05-19T20:22:03.040Z,101874.55
2023-05-19T20:24:32.270Z,101874.08
2023-05-19T20:27:02.964Z,101873.45
2023-05-19T20:29:33.853Z,101876.45
2023-05-19T20:32:03.159Z,101877.17
2023-05-19T20:34:33.971Z,101875.60
2023-05-19T20:37:07.535Z,101877.05
2023-05-19T20:39:44.411Z,101873.05
2023-05-19T20:42:13.532Z,101872.69
2023-05-19T20:44:44.333Z,101870.31
2023-05-19T20:47:15.032Z,101867.88
2023-05-19T20:49:45.991Z,101868.95
2023-05-19T20:52:15.189Z,101866.95
2023-05-19T20:54:46.223Z,101867.89
2023-05-19T20:57:15.412Z,101866.96
2023-05-19T20:59:46.192Z,101867.45
2023-05-19T21:02:16.914Z,101867.02
2023-05-19T21:04:49.372Z,101867.11
2023-05-19T21:07:20.126Z,101867.81
2023-05-19T21:09:50.982Z,101869.14
2023-05-19T21:12:21.940Z,101869.11
2023-05-19T21:14:53.937Z,101872.03
2023-05-19T21:17:24.573Z,101871.55
2023-05-19T21:19:55.568Z,101875.23
2023-05-19T21:22:32.728Z,101874.59
2023-05-19T21:25:24.432Z,101875.44
2023-05-19T21:27:55.400Z,101881.61
2023-05-19T21:30:27.667Z,101879.41
2023-05-19T21:32:58.603Z,101883.51
2023-05-19T21:35:29.499Z,101884.56
2023-05-19T21:38:08.956Z,101886.60
2023-05-19T21:40:48.035Z,101884.11
2023-05-19T21:43:18.780Z,101889.23
2023-05-19T21:46:10.598Z,101889.16
2023-05-19T21:48:41.408Z,101894.19
2023-05-19T21:51:12.110Z,101889.33
2023-05-19T21:53:42.820Z,101892.53
2023-05-19T21:56:13.514Z,101890.47
2023-05-19T21:58:44.772Z,101889.71
2023-05-19T22:01:15.470Z,101890.86
2023-05-19T22:03:46.319Z,101890.88
2023-05-19T22:06:17.465Z,101889.14
2023-05-19T22:09:08.753Z,101889.35
2023-05-19T22:11:39.461Z,101889.14
2023-05-19T22:14:10.349Z,101883.43
2023-05-19T22:16:39.859Z,101881.48
2023-05-19T22:19:10.917Z,101881.86
2023-05-19T22:21:40.110Z,101884.16
2023-05-19T22:24:10.781Z,101878.59
2023-05-19T22:26:41.518Z,101878.17
2023-05-19T22:29:12.356Z,101877.82
2023-05-19T22:31:43.438Z,101875.44
2023-05-19T22:34:14.237Z,101873.19
2023-05-19T22:36:45.049Z,101870.91
2023-05-19T22:39:15.750Z,101868.98
2023-05-19T22:41:46.565Z,101863.20
2023-05-19T22:44:17.238Z,101868.41
2023-05-19T22:46:48.043Z,101864.40
2023-05-19T22:49:18.740Z,101860.05
2023-05-19T22:51:49.620Z,101860.48
2023-05-19T22:54:20.511Z,101860.38
2023-05-19T22:56:51.226Z,101857.98
2023-05-19T22:59:21.894Z,101862.02
2023-05-19T23:01:52.640Z,101859.46
2023-05-19T23:04:23.410Z,101861.96
2023-05-19T23:06:54.240Z,101862.10
2023-05-19T23:09:24.913Z,101862.34
2023-05-19T23:11:55.808Z,101860.71
2023-05-19T23:14:25.048Z,101857.58
2023-05-19T23:16:55.769Z,101853.42
2023-05-19T23:19:26.618Z,101853.10
2023-05-19T23:21:57.392Z,101852.66
2023-05-19T23:24:28.106Z,101854.42
2023-05-19T23:26:58.786Z,101847.58
2023-05-19T23:29:29.561Z,101843.42
2023-05-19T23:32:00.312Z,101846.56
2023-05-19T23:34:31.135Z,101847.55
2023-05-19T23:37:01.925Z,101846.81
2023-05-19T23:39:32.756Z,101846.98
2023-05-19T23:42:03.446Z,101845.28
2023-05-19T23:44:34.131Z,101843.42
2023-05-19T23:47:05.141Z,101844.73
2023-05-19T23:49:35.902Z,101845.77
2023-05-19T23:52:08.661Z,101845.45
2023-05-19T23:54:39.374Z,101840.57
2023-05-19T23:57:10.100Z,101838.48
2023-05-19T23:59:40.822Z,101837.05
